Time;durP1;ratioP1;P1;durP2;ratioP2;P2;SDS_P1;SDS_P2;PMS_P1;PMS_P2;Temp;Humidity;BMP_temperature;BMP_pressure;BME280_temperature;BME280_humidity;BME280_pressure;Samples;Min_cycle;Max_cycle;Signal;HPM_P1;HPM_P2
2021/12/04 00:00:15;;;;;;;10.40;2.78;;;4.70;99.90;;;;;;4990527;28;20222;-72
2021/12/04 00:03:01;;;;;;;6.13;2.80;;;4.70;99.90;;;;;;4988787;28;20226;-72
2021/12/04 00:05:51;;;;;;;5.28;2.38;;;4.70;99.90;;;;;;4988787;28;20206;-72
2021/12/04 00:08:37;;;;;;;6.88;2.45;;;4.70;99.90;;;;;;4993220;28;20273;-72
2021/12/04 00:11:23;;;;;;;4.30;2.45;;;4.70;99.90;;;;;;4987343;28;20588;-72
2021/12/04 00:14:08;;;;;;;6.30;2.58;;;4.70;99.90;;;;;;4988346;28;20314;-72
2021/12/04 00:16:54;;;;;;;4.65;3.03;;;4.70;99.90;;;;;;4986318;28;20203;-71
2021/12/04 00:19:40;;;;;;;3.67;2.60;;;4.70;99.90;;;;;;4994721;28;20207;-72
2021/12/04 00:22:27;;;;;;;5.05;2.58;;;4.80;99.90;;;;;;4990706;28;20724;-71
2021/12/04 00:25:13;;;;;;;7.57;2.97;;;4.80;99.90;;;;;;4984131;28;20700;-72
2021/12/04 00:27:58;;;;;;;5.47;2.65;;;4.80;99.90;;;;;;4985195;28;20335;-72
2021/12/04 00:30:45;;;;;;;6.60;2.70;;;4.80;99.90;;;;;;4988397;28;20221;-72
2021/12/04 00:33:31;;;;;;;4.18;2.65;;;4.80;99.90;;;;;;4988390;28;20542;-72
2021/12/04 00:36:27;;;;;;;5.43;2.55;;;4.80;99.90;;;;;;4989517;28;20215;-72
2021/12/04 00:51:27;;;;;;;7.20;2.65;;;4.40;99.90;;;;;;4989946;28;20262;-72
2021/12/04 00:54:14;;;;;;;5.97;2.80;;;4.40;99.90;;;;;;4985053;28;20269;-72
2021/12/04 00:56:59;;;;;;;4.55;3.17;;;4.40;99.90;;;;;;4985863;28;20347;-72
2021/12/04 00:59:45;;;;;;;4.20;2.95;;;4.40;99.90;;;;;;4992169;28;20278;-72
2021/12/04 01:02:31;;;;;;;6.43;2.85;;;4.40;99.90;;;;;;4993398;28;20968;-72
2021/12/04 01:05:17;;;;;;;7.00;3.05;;;4.30;99.90;;;;;;4989743;28;20688;-71
2021/12/04 01:08:02;;;;;;;3.95;2.45;;;4.20;99.90;;;;;;4997796;28;20206;-72
2021/12/04 01:10:49;;;;;;;3.05;2.25;;;4.10;99.90;;;;;;4991476;28;20728;-72
2021/12/04 01:13:36;;;;;;;4.47;2.40;;;4.00;99.90;;;;;;4993040;28;20330;-72
2021/12/04 01:16:21;;;;;;;5.10;3.00;;;4.00;99.90;;;;;;4994010;28;20688;-72
2021/12/04 01:19:07;;;;;;;5.15;3.28;;;3.90;99.90;;;;;;4987593;28;20679;-72
2021/12/04 01:21:54;;;;;;;5.20;2.50;;;3.90;99.90;;;;;;4993002;28;20227;-72
2021/12/04 01:24:40;;;;;;;4.00;2.63;;;3.90;99.90;;;;;;4991409;28;20277;-71
2021/12/04 01:27:27;;;;;;;8.07;2.70;;;3.90;99.90;;;;;;4989624;28;20681;-72
2021/12/04 01:30:13;;;;;;;8.15;3.05;;;3.90;99.90;;;;;;4988592;28;20291;-72
2021/12/04 01:32:58;;;;;;;3.40;2.55;;;3.90;99.90;;;;;;4991057;28;20585;-72
2021/12/04 01:35:44;;;;;;;6.03;3.08;;;3.80;99.90;;;;;;4988421;28;20211;-72
2021/12/04 01:38:30;;;;;;;4.10;2.65;;;3.80;99.90;;;;;;4991321;28;20577;-72
2021/12/04 01:41:16;;;;;;;5.60;2.90;;;3.80;99.90;;;;;;5031382;23;20239;-73
2021/12/04 01:44:05;;;;;;;3.45;2.42;;;3.70;99.90;;;;;;5048938;28;20785;-74
2021/12/04 01:46:55;;;;;;;4.63;2.60;;;3.70;99.90;;;;;;5057792;28;20586;-74
2021/12/04 01:49:41;;;;;;;5.05;2.67;;;3.70;99.90;;;;;;5054495;28;20327;-74
2021/12/04 01:52:27;;;;;;;5.35;2.83;;;3.60;99.90;;;;;;5048952;28;20669;-74
2021/12/04 01:55:13;;;;;;;3.70;2.58;;;3.60;99.90;;;;;;5044080;28;20792;-75
2021/12/04 01:58:01;;;;;;;8.73;2.95;;;3.50;99.90;;;;;;5051073;28;20320;-73
2021/12/04 02:00:49;;;;;;;3.47;2.60;;;3.50;99.90;;;;;;5050033;28;20348;-73
2021/12/04 02:03:34;;;;;;;5.90;2.75;;;3.50;99.90;;;;;;5049035;28;20764;-73
2021/12/04 02:06:20;;;;;;;3.50;2.65;;;3.50;99.90;;;;;;5049217;28;20662;-75
2021/12/04 02:09:05;;;;;;;3.67;2.55;;;3.50;99.90;;;;;;5050971;28;20598;-74
2021/12/04 02:11:51;;;;;;;4.40;2.60;;;3.50;99.90;;;;;;5052127;28;20235;-75
2021/12/04 02:14:40;;;;;;;6.18;2.60;;;3.50;99.90;;;;;;5047715;28;20219;-74
2021/12/04 02:17:27;;;;;;;6.97;2.63;;;3.50;99.90;;;;;;5052716;28;20225;-74
2021/12/04 02:20:18;;;;;;;6.38;2.83;;;3.50;99.90;;;;;;5048374;28;20631;-74
2021/12/04 02:23:06;;;;;;;5.80;2.55;;;3.50;99.90;;;;;;5046317;28;20303;-74
2021/12/04 02:25:52;;;;;;;7.72;3.15;;;3.40;99.90;;;;;;5051811;28;20339;-74
2021/12/04 02:28:38;;;;;;;4.20;2.90;;;3.50;99.90;;;;;;5050942;28;20395;-75
2021/12/04 02:31:23;;;;;;;3.55;2.70;;;3.50;99.90;;;;;;5045681;28;20236;-74
2021/12/04 02:34:09;;;;;;;7.05;3.03;;;3.50;99.90;;;;;;5048876;28;20196;-75
2021/12/04 02:36:57;;;;;;;6.05;3.42;;;3.50;99.90;;;;;;5049270;28;20225;-75
2021/12/04 02:39:45;;;;;;;5.57;3.22;;;3.50;99.90;;;;;;5051583;28;20570;-75
2021/12/04 02:42:31;;;;;;;3.85;2.85;;;3.60;99.90;;;;;;5046336;28;20232;-74
2021/12/04 02:45:17;;;;;;;5.38;3.30;;;3.70;99.90;;;;;;5049638;28;20199;-75
2021/12/04 02:48:03;;;;;;;5.53;2.30;;;3.60;99.90;;;;;;5046521;28;20201;-75
2021/12/04 02:50:49;;;;;;;8.55;3.03;;;3.70;99.90;;;;;;5054754;28;20223;-75
2021/12/04 02:53:36;;;;;;;4.28;3.20;;;3.60;99.90;;;;;;5044816;28;20198;-75
2021/12/04 02:56:25;;;;;;;4.55;2.90;;;3.50;99.90;;;;;;5049281;28;20313;-74
2021/12/04 02:59:10;;;;;;;4.90;2.95;;;3.50;99.90;;;;;;5051631;28;20602;-75
2021/12/04 03:01:57;;;;;;;5.15;2.20;;;3.50;99.90;;;;;;5054661;28;20229;-74
2021/12/04 03:04:43;;;;;;;4.25;2.67;;;3.40;99.90;;;;;;5047336;28;20205;-75
2021/12/04 03:07:29;;;;;;;4.78;4.00;;;3.30;99.90;;;;;;5050430;28;20578;-74
2021/12/04 03:10:16;;;;;;;3.92;2.78;;;3.30;99.90;;;;;;5056854;28;21114;-75
2021/12/04 03:13:04;;;;;;;4.15;2.60;;;3.40;99.90;;;;;;5049549;28;20435;-74
2021/12/04 03:15:58;;;;;;;4.95;3.00;;;3.40;99.90;;;;;;5050803;28;20200;-74
2021/12/04 03:18:43;;;;;;;3.10;2.25;;;3.40;99.90;;;;;;5052322;28;20300;-75
2021/12/04 03:21:29;;;;;;;4.45;3.03;;;3.40;99.90;;;;;;5054044;28;20232;-75
2021/12/04 03:24:17;;;;;;;3.67;2.65;;;3.40;99.90;;;;;;5048407;28;20217;-75
2021/12/04 03:27:04;;;;;;;5.05;2.80;;;3.30;99.90;;;;;;5053313;28;20224;-74
2021/12/04 03:29:55;;;;;;;3.42;2.70;;;3.40;99.90;;;;;;5053325;28;20322;-75
2021/12/04 03:41:52;;;;;;;4.40;2.97;;;3.20;99.90;;;;;;5046739;28;20285;-75
2021/12/04 03:44:40;;;;;;;3.80;2.80;;;3.40;99.90;;;;;;5054794;28;20229;-75
2021/12/04 03:47:27;;;;;;;4.28;2.55;;;3.50;99.90;;;;;;5047529;28;20241;-75
2021/12/04 03:50:13;;;;;;;5.63;3.15;;;3.50;99.90;;;;;;5053614;28;20225;-75
2021/12/04 03:52:59;;;;;;;5.40;2.65;;;3.50;99.90;;;;;;5042640;28;20674;-75
2021/12/04 03:55:45;;;;;;;3.15;2.42;;;3.40;99.90;;;;;;5053298;28;20250;-74
2021/12/04 03:58:31;;;;;;;5.03;2.90;;;3.40;99.90;;;;;;5050858;28;20204;-75
2021/12/04 04:01:18;;;;;;;4.43;3.00;;;3.50;99.90;;;;;;5049578;28;20233;-74
2021/12/04 04:04:04;;;;;;;4.20;2.60;;;3.50;99.90;;;;;;5049707;28;20267;-75
2021/12/04 04:06:50;;;;;;;4.75;3.33;;;3.60;99.90;;;;;;5051391;28;20279;-73
2021/12/04 04:09:36;;;;;;;3.13;2.17;;;3.60;99.90;;;;;;5051763;28;20344;-73
2021/12/04 04:12:22;;;;;;;4.38;2.85;;;3.50;99.90;;;;;;5049640;28;20225;-73
2021/12/04 04:15:08;;;;;;;4.18;3.03;;;3.40;99.90;;;;;;5052052;28;20201;-73
2021/12/04 04:17:55;;;;;;;3.92;2.60;;;3.20;99.90;;;;;;5051247;28;20263;-73
2021/12/04 04:20:41;;;;;;;4.55;3.47;;;3.20;99.90;;;;;;5054899;28;20228;-73
2021/12/04 04:23:27;;;;;;;3.63;3.00;;;3.20;99.90;;;;;;5046908;28;20356;-73
2021/12/04 04:26:12;;;;;;;4.65;3.40;;;3.20;99.90;;;;;;5058079;28;20213;-73
2021/12/04 04:28:58;;;;;;;5.30;2.83;;;3.30;99.90;;;;;;5058112;28;20201;-73
2021/12/04 04:31:47;;;;;;;7.03;2.80;;;3.20;99.90;;;;;;5051191;28;20810;-73
2021/12/04 04:34:35;;;;;;;12.35;2.80;;;3.20;99.90;;;;;;5049212;28;20304;-73
2021/12/04 04:37:27;;;;;;;3.40;2.70;;;3.20;99.90;;;;;;5049216;28;20201;-73
2021/12/04 04:58:56;;;;;;;4.72;3.08;;;3.40;99.90;;;;;;5053133;28;20204;-73
2021/12/04 05:02:00;;;;;;;5.18;2.53;;;3.50;99.90;;;;;;5050131;28;20352;-73
2021/12/04 05:13:48;;;;;;;3.55;2.42;;;3.50;99.90;;;;;;5052380;28;20263;-73
2021/12/04 05:16:44;;;;;;;4.30;2.75;;;3.60;99.90;;;;;;5054991;28;20335;-72
2021/12/04 05:19:38;;;;;;;3.85;2.78;;;3.60;99.90;;;;;;5050024;28;20197;-72
2021/12/04 05:22:24;;;;;;;6.93;2.92;;;3.60;99.90;;;;;;5050875;28;20575;-73
2021/12/04 05:25:11;;;;;;;5.45;3.20;;;3.50;99.90;;;;;;5051981;28;20728;-73
2021/12/04 05:27:57;;;;;;;4.18;2.65;;;3.50;99.90;;;;;;5047868;28;20200;-73
2021/12/04 05:30:42;;;;;;;6.07;3.78;;;3.50;99.90;;;;;;5045370;28;20705;-73
2021/12/04 05:33:29;;;;;;;4.60;3.45;;;3.50;99.90;;;;;;5050630;28;20204;-73
2021/12/04 05:36:15;;;;;;;7.22;3.50;;;3.60;99.90;;;;;;5053185;28;20201;-73
2021/12/04 05:39:01;;;;;;;6.55;4.28;;;3.50;99.90;;;;;;5054883;28;20668;-73
2021/12/04 05:41:48;;;;;;;5.90;3.95;;;3.50;99.90;;;;;;5049036;28;20403;-73
2021/12/04 05:44:34;;;;;;;6.65;5.05;;;3.50;99.90;;;;;;5052328;28;20355;-73
2021/12/04 05:47:23;;;;;;;9.23;4.20;;;3.50;99.90;;;;;;5048719;28;20204;-73
2021/12/04 05:50:20;;;;;;;4.22;3.25;;;3.50;99.90;;;;;;5049456;28;20618;-73
2021/12/04 05:53:18;;;;;;;7.40;3.65;;;3.40;99.90;;;;;;5051912;28;20203;-73
2021/12/04 05:56:03;;;;;;;4.78;3.65;;;3.50;99.90;;;;;;5049379;28;20697;-73
2021/12/04 05:58:51;;;;;;;4.68;3.97;;;3.50;99.90;;;;;;5048714;28;20622;-73
2021/12/04 06:01:37;;;;;;;5.32;3.03;;;3.50;99.90;;;;;;5045441;28;20228;-73
2021/12/04 06:04:25;;;;;;;5.10;3.83;;;3.50;99.90;;;;;;5049629;28;20355;-73
2021/12/04 06:07:12;;;;;;;5.75;4.50;;;3.50;99.90;;;;;;5052533;28;20205;-73
2021/12/04 06:09:58;;;;;;;6.45;4.65;;;3.50;99.90;;;;;;5045201;28;20208;-73
2021/12/04 06:12:43;;;;;;;6.22;4.22;;;3.50;99.90;;;;;;5048423;28;20258;-73
2021/12/04 06:15:30;;;;;;;7.20;4.10;;;3.50;99.90;;;;;;5049652;28;20209;-73
2021/12/04 06:18:16;;;;;;;5.45;4.50;;;3.50;99.90;;;;;;5052724;28;20278;-73
2021/12/04 06:24:06;;;;;;;5.40;4.03;;;3.40;99.90;;;;;;5044063;28;20267;-73
2021/12/04 06:26:52;;;;;;;6.32;5.13;;;3.50;99.90;;;;;;5049664;28;20291;-73
2021/12/04 06:29:37;;;;;;;4.90;4.10;;;3.40;99.90;;;;;;5047547;28;20220;-73
2021/12/04 06:32:24;;;;;;;5.70;4.70;;;3.50;99.90;;;;;;5045681;28;20221;-73
2021/12/04 06:35:12;;;;;;;6.78;4.80;;;3.50;99.90;;;;;;5055448;28;20197;-73
2021/12/04 06:37:59;;;;;;;6.65;5.00;;;3.40;99.90;;;;;;5047283;28;20204;-73
2021/12/04 06:40:45;;;;;;;8.80;5.30;;;3.50;99.90;;;;;;5046638;28;20236;-73
2021/12/04 06:43:31;;;;;;;7.63;5.28;;;3.60;99.90;;;;;;5056966;28;20287;-73
2021/12/04 06:46:18;;;;;;;6.78;5.28;;;3.60;99.90;;;;;;5050230;28;20200;-73
2021/12/04 06:49:09;;;;;;;6.55;5.45;;;3.60;99.90;;;;;;5055479;28;20319;-73
2021/12/04 06:51:57;;;;;;;6.28;4.60;;;3.60;99.90;;;;;;5060405;28;20223;-73
2021/12/04 06:54:50;;;;;;;5.85;4.90;;;3.60;99.90;;;;;;5055614;28;20201;-73
2021/12/04 06:57:39;;;;;;;8.00;6.10;;;3.70;99.90;;;;;;5056239;28;20201;-73
2021/12/04 07:00:26;;;;;;;5.88;4.95;;;3.60;99.90;;;;;;5047432;28;20200;-73
2021/12/04 07:03:12;;;;;;;5.47;4.32;;;3.50;99.90;;;;;;5057108;28;20200;-73
2021/12/04 07:05:58;;;;;;;6.07;4.20;;;3.50;99.90;;;;;;5061269;28;20213;-73
2021/12/04 07:08:44;;;;;;;7.10;4.93;;;3.60;99.90;;;;;;5051677;28;20615;-73
2021/12/04 07:11:30;;;;;;;6.30;5.15;;;3.50;99.90;;;;;;5051834;28;20233;-73
2021/12/04 07:14:15;;;;;;;7.00;5.25;;;3.40;99.90;;;;;;5051432;28;20247;-73
2021/12/04 07:17:03;;;;;;;7.28;5.53;;;3.40;99.90;;;;;;5053388;28;20205;-73
2021/12/04 07:19:48;;;;;;;6.72;5.22;;;3.40;99.90;;;;;;5048577;28;20678;-73
2021/12/04 07:22:35;;;;;;;6.68;4.63;;;3.40;99.90;;;;;;5054064;28;20589;-73
2021/12/04 07:25:21;;;;;;;8.30;4.90;;;3.40;99.90;;;;;;5054306;28;20710;-73
2021/12/04 07:28:07;;;;;;;5.50;4.72;;;3.40;99.90;;;;;;5054126;28;20343;-73
2021/12/04 07:30:53;;;;;;;6.43;4.90;;;3.40;99.90;;;;;;5047000;28;20709;-73
2021/12/04 07:33:39;;;;;;;6.72;5.55;;;3.40;99.90;;;;;;5054900;28;20199;-73
2021/12/04 07:36:25;;;;;;;6.47;5.25;;;3.40;99.90;;;;;;5047992;28;20204;-73
2021/12/04 07:39:12;;;;;;;9.10;5.68;;;3.50;99.90;;;;;;5053396;28;20201;-73
2021/12/04 07:41:58;;;;;;;8.35;5.93;;;3.50;99.90;;;;;;5073086;22;20703;-72
2021/12/04 07:44:43;;;;;;;7.65;5.45;;;3.60;99.90;;;;;;5058501;28;20223;-72
2021/12/04 07:47:29;;;;;;;6.53;5.60;;;3.60;99.90;;;;;;5055047;28;20574;-72
2021/12/04 07:50:15;;;;;;;6.88;5.15;;;3.60;99.90;;;;;;5052771;28;20196;-71
2021/12/04 07:53:02;;;;;;;7.30;5.32;;;3.60;99.90;;;;;;5053851;28;20263;-71
2021/12/04 07:55:49;;;;;;;6.35;4.78;;;3.70;99.90;;;;;;5057080;28;20279;-72
2021/12/04 07:58:35;;;;;;;6.03;4.90;;;3.70;99.90;;;;;;5049785;28;20209;-71
2021/12/04 08:01:21;;;;;;;6.75;5.30;;;3.80;99.90;;;;;;5048159;28;20225;-71
2021/12/04 08:04:07;;;;;;;5.97;4.90;;;3.80;99.90;;;;;;5053426;28;20299;-71
2021/12/04 08:06:53;;;;;;;12.52;6.13;;;3.90;99.90;;;;;;5056720;28;20278;-71
2021/12/04 08:09:39;;;;;;;8.93;6.35;;;3.90;99.90;;;;;;5049179;28;20404;-71
2021/12/04 08:12:25;;;;;;;7.18;5.53;;;3.90;99.90;;;;;;5051489;28;20306;-71
2021/12/04 08:15:13;;;;;;;8.77;6.15;;;3.80;99.90;;;;;;5054734;28;20201;-71
2021/12/04 08:17:59;;;;;;;8.57;6.35;;;3.80;99.90;;;;;;5050190;28;20241;-70
2021/12/04 08:20:45;;;;;;;7.63;5.65;;;3.80;99.90;;;;;;5055737;28;20283;-71
2021/12/04 08:23:31;;;;;;;8.70;5.50;;;3.80;99.90;;;;;;5054049;28;20208;-71
2021/12/04 08:26:17;;;;;;;6.25;4.80;;;3.70;99.90;;;;;;5048056;28;20201;-71
2021/12/04 08:29:06;;;;;;;8.00;6.75;;;3.70;99.90;;;;;;5049985;28;20208;-71
2021/12/04 08:31:52;;;;;;;7.60;6.25;;;3.70;99.90;;;;;;5052935;28;20225;-71
2021/12/04 08:34:38;;;;;;;8.13;6.85;;;3.80;99.90;;;;;;5051730;28;20201;-70
2021/12/04 08:37:24;;;;;;;8.10;6.68;;;3.80;99.90;;;;;;5050170;28;20200;-71
2021/12/04 08:40:14;;;;;;;10.20;7.47;;;3.80;99.90;;;;;;5045404;28;20205;-71
2021/12/04 08:43:00;;;;;;;6.05;5.28;;;3.90;99.90;;;;;;5056996;28;20291;-71
2021/12/04 08:45:47;;;;;;;9.27;6.13;;;3.90;99.90;;;;;;5050709;28;20222;-71
2021/12/04 08:48:33;;;;;;;7.03;5.10;;;4.00;99.90;;;;;;5047687;28;20201;-71
2021/12/04 08:51:21;;;;;;;8.30;5.85;;;4.10;99.90;;;;;;5054312;28;20228;-71
2021/12/04 08:54:07;;;;;;;8.50;5.50;;;4.10;99.90;;;;;;5048871;28;20205;-71
2021/12/04 08:56:53;;;;;;;11.48;7.55;;;4.10;99.90;;;;;;5055025;28;20209;-71
2021/12/04 08:59:39;;;;;;;11.40;8.55;;;4.20;99.90;;;;;;5052278;28;20709;-70
2021/12/04 09:02:26;;;;;;;10.32;8.30;;;4.30;99.90;;;;;;5045734;28;20235;-71
2021/12/04 09:05:14;;;;;;;9.65;7.15;;;4.30;99.90;;;;;;5054158;28;20255;-71
2021/12/04 09:07:59;;;;;;;13.20;8.35;;;4.20;99.90;;;;;;5048792;28;20567;-71
2021/12/04 09:10:47;;;;;;;11.77;8.00;;;4.20;99.90;;;;;;5049272;28;20197;-71
2021/12/04 09:13:33;;;;;;;10.25;7.10;;;4.20;99.90;;;;;;5053379;28;20220;-71
2021/12/04 09:16:19;;;;;;;9.90;7.47;;;4.20;99.90;;;;;;5052837;28;20243;-71
2021/12/04 09:19:07;;;;;;;11.23;9.27;;;4.20;99.90;;;;;;5051365;28;20294;-71
2021/12/04 09:21:53;;;;;;;11.40;9.25;;;4.30;99.90;;;;;;5046237;28;20275;-71
2021/12/04 09:24:40;;;;;;;12.77;8.75;;;4.30;99.90;;;;;;5053719;28;20244;-70
2021/12/04 09:27:40;;;;;;;13.75;10.32;;;4.30;99.90;;;;;;5045746;28;20205;-71
2021/12/04 09:30:48;;;;;;;10.93;8.82;;;4.40;99.90;;;;;;5047079;28;20343;-71
2021/12/04 10:13:58;;;;;;;16.95;10.70;;;4.80;99.90;;;;;;5047486;28;20212;-71
2021/12/04 10:19:55;;;;;;;14.00;9.13;;;4.80;99.90;;;;;;5057536;28;20201;-71
2021/12/04 10:23:06;;;;;;;11.18;8.32;;;4.90;99.90;;;;;;5062673;28;20570;-71
2021/12/04 10:35:08;;;;;;;12.23;9.32;;;5.00;99.90;;;;;;5046782;28;20185;-71
2021/12/04 10:38:00;;;;;;;17.60;10.00;;;5.00;99.90;;;;;;5052827;28;20263;-70
2021/12/04 10:40:48;;;;;;;12.23;8.82;;;5.10;99.90;;;;;;5063889;28;20211;-70
2021/12/04 10:43:35;;;;;;;13.15;9.35;;;5.10;99.90;;;;;;5050819;28;20423;-70
2021/12/04 10:46:22;;;;;;;12.68;8.88;;;5.10;99.90;;;;;;5050476;28;20228;-70
2021/12/04 10:49:14;;;;;;;13.65;9.90;;;5.00;99.90;;;;;;5051435;28;20336;-70
2021/12/04 10:52:03;;;;;;;13.27;10.10;;;5.00;99.90;;;;;;5045523;28;20225;-70
2021/12/04 10:54:54;;;;;;;17.45;11.35;;;5.00;99.90;;;;;;5049749;28;20197;-71
2021/12/04 11:01:08;;;;;;;12.35;9.45;;;5.20;99.90;;;;;;5026629;28;20196;-71
2021/12/04 11:04:01;;;;;;;12.02;8.40;;;5.20;99.90;;;;;;5048797;28;20200;-71
2021/12/04 11:19:10;;;;;;;18.73;14.05;;;5.20;99.90;;;;;;5053289;28;20297;-71
2021/12/04 11:22:13;;;;;;;14.70;11.40;;;5.30;99.90;;;;;;5047805;28;20256;-71
2021/12/04 11:25:21;;;;;;;13.77;10.75;;;5.30;99.90;;;;;;5049600;28;20217;-70
2021/12/04 11:28:19;;;;;;;14.63;10.88;;;5.30;99.90;;;;;;5052104;28;20216;-70
2021/12/04 11:37:31;;;;;;;14.85;9.10;;;5.40;99.90;;;;;;5053810;28;20197;-70
2021/12/04 11:40:29;;;;;;;9.20;8.00;;;5.30;99.90;;;;;;5053216;28;20681;-70
2021/12/04 11:43:21;;;;;;;10.48;7.95;;;5.40;99.90;;;;;;5047955;28;20196;-70
2021/12/04 11:46:20;;;;;;;10.35;8.68;;;5.40;99.90;;;;;;5049804;28;20717;-70
2021/12/04 11:49:10;;;;;;;11.35;8.93;;;5.40;99.90;;;;;;5050224;28;20603;-70
2021/12/04 11:51:59;;;;;;;9.98;8.10;;;5.40;99.90;;;;;;5051489;28;20787;-70
2021/12/04 11:54:49;;;;;;;11.23;8.75;;;5.40;99.90;;;;;;5047245;28;20283;-71
2021/12/04 11:57:36;;;;;;;11.05;7.90;;;5.40;99.90;;;;;;5050600;28;20204;-70
2021/12/04 12:00:27;;;;;;;8.77;6.70;;;5.40;99.90;;;;;;5048162;28;20674;-71
2021/12/04 12:03:15;;;;;;;8.90;7.35;;;5.40;99.90;;;;;;5050562;28;20258;-71
2021/12/04 12:06:04;;;;;;;10.02;7.70;;;5.50;99.90;;;;;;5048844;28;20261;-71
2021/12/04 12:08:59;;;;;;;10.07;8.20;;;5.60;99.90;;;;;;5048225;28;20209;-70
2021/12/04 12:11:50;;;;;;;10.30;8.65;;;5.70;99.90;;;;;;5048398;28;20693;-70
2021/12/04 12:14:43;;;;;;;12.10;8.68;;;5.70;99.90;;;;;;5046562;28;20608;-70
2021/12/04 12:17:36;;;;;;;9.65;7.53;;;5.70;99.90;;;;;;5052743;28;20213;-71
2021/12/04 12:20:37;;;;;;;8.38;6.88;;;5.70;99.90;;;;;;5046642;28;20279;-71
2021/12/04 12:23:26;;;;;;;8.15;6.88;;;5.70;99.90;;;;;;5051116;28;20204;-70
2021/12/04 12:26:31;;;;;;;8.93;8.02;;;5.70;99.90;;;;;;5048625;28;20220;-70
2021/12/04 12:32:57;;;;;;;8.95;6.88;;;5.70;99.90;;;;;;5050722;28;20229;-70
2021/12/04 12:36:07;;;;;;;10.85;8.30;;;5.70;99.90;;;;;;5053446;28;20279;-70
2021/12/04 12:38:56;;;;;;;9.85;7.63;;;5.80;99.90;;;;;;5052253;28;20336;-70
2021/12/04 12:41:44;;;;;;;10.15;7.72;;;5.80;99.90;;;;;;5044284;28;20360;-70
2021/12/04 12:44:32;;;;;;;12.82;8.27;;;5.90;99.90;;;;;;5045715;28;20208;-71
2021/12/04 12:47:21;;;;;;;10.18;7.78;;;6.00;99.90;;;;;;5048030;28;20212;-70
2021/12/04 12:50:09;;;;;;;7.30;6.30;;;6.00;99.90;;;;;;5052013;28;20205;-70
2021/12/04 12:53:02;;;;;;;8.35;6.65;;;6.00;99.90;;;;;;5045779;28;20375;-70
2021/12/04 12:55:50;;;;;;;7.60;6.43;;;6.00;99.90;;;;;;5056039;28;20204;-70
2021/12/04 12:58:42;;;;;;;8.95;7.35;;;6.10;99.90;;;;;;5053309;28;20666;-70
2021/12/04 13:13:51;;;;;;;7.63;6.30;;;6.00;99.90;;;;;;5041202;28;20724;-71
2021/12/04 13:16:37;;;;;;;7.55;6.28;;;6.00;99.90;;;;;;5047940;28;20711;-70
2021/12/04 13:19:24;;;;;;;7.95;6.55;;;6.00;99.90;;;;;;5049555;28;20324;-70
2021/12/04 13:22:14;;;;;;;8.18;6.07;;;6.00;99.90;;;;;;5046634;28;20351;-70
2021/12/04 13:25:06;;;;;;;7.60;6.13;;;6.10;99.90;;;;;;5049055;28;20197;-70
2021/12/04 13:30:44;;;;;;;10.13;5.70;;;6.10;99.90;;;;;;5045480;28;20560;-69
2021/12/04 13:33:31;;;;;;;27.45;15.30;;;6.00;99.90;;;;;;5050197;28;20213;-69
2021/12/04 13:36:19;;;;;;;34.75;19.27;;;6.00;99.90;;;;;;5048567;28;20278;-70
2021/12/04 13:39:08;;;;;;;25.15;14.40;;;6.10;99.90;;;;;;5044858;28;20201;-69
2021/12/04 13:41:56;;;;;;;15.98;10.40;;;6.10;99.90;;;;;;5046700;28;20241;-69
2021/12/04 13:44:42;;;;;;;13.10;9.05;;;6.10;99.90;;;;;;5049870;28;20201;-69
2021/12/04 13:47:28;;;;;;;10.07;7.82;;;6.20;99.90;;;;;;5048885;28;20200;-69
2021/12/04 13:53:25;;;;;;;8.05;7.15;;;6.30;99.90;;;;;;5043736;28;20624;-70
2021/12/04 13:56:14;;;;;;;8.98;7.60;;;6.30;99.90;;;;;;5055175;28;20191;-71
2021/12/04 13:59:04;;;;;;;10.02;7.38;;;6.20;99.90;;;;;;5045167;28;20646;-71
2021/12/04 14:01:50;;;;;;;11.90;9.07;;;6.10;99.90;;;;;;5046829;28;20364;-71
2021/12/04 14:04:37;;;;;;;11.02;7.05;;;6.20;99.90;;;;;;5050485;28;20213;-71
2021/12/04 14:07:23;;;;;;;9.00;7.65;;;6.10;99.90;;;;;;5051070;28;20287;-71
2021/12/04 14:10:14;;;;;;;11.25;8.63;;;6.10;99.90;;;;;;5049471;28;20204;-71
2021/12/04 14:13:02;;;;;;;12.80;9.13;;;6.10;99.90;;;;;;5039502;28;20303;-70
2021/12/04 14:15:52;;;;;;;107.15;33.95;;;6.10;99.90;;;;;;5061046;28;20205;-69
2021/12/04 14:18:39;;;;;;;42.88;14.43;;;6.10;99.90;;;;;;5050988;28;20205;-69
2021/12/04 14:21:25;;;;;;;22.33;10.45;;;6.00;99.90;;;;;;5039883;28;20235;-69
2021/12/04 14:24:11;;;;;;;18.20;10.10;;;6.00;99.90;;;;;;5048721;28;20603;-70
2021/12/04 14:26:59;;;;;;;15.48;11.50;;;6.00;99.90;;;;;;5043701;28;20351;-71
2021/12/04 14:29:48;;;;;;;15.52;10.95;;;6.00;99.90;;;;;;5049841;28;20201;-70
2021/12/04 14:32:37;;;;;;;13.40;10.00;;;6.00;99.90;;;;;;5044038;28;20223;-71
2021/12/04 14:35:27;;;;;;;14.10;11.70;;;6.10;99.90;;;;;;5049537;28;20224;-70
2021/12/04 14:38:17;;;;;;;15.60;9.98;;;6.10;99.90;;;;;;5044668;28;20205;-71
2021/12/04 14:41:07;;;;;;;14.73;11.30;;;6.20;99.90;;;;;;5047104;28;20279;-72
2021/12/04 14:43:52;;;;;;;14.02;10.80;;;6.20;99.90;;;;;;5053985;28;20331;-71
2021/12/04 14:46:38;;;;;;;16.30;12.60;;;6.20;99.90;;;;;;5049424;28;20260;-71
2021/12/04 14:49:25;;;;;;;12.10;9.05;;;6.20;99.90;;;;;;5047004;28;20204;-71
2021/12/04 14:52:18;;;;;;;7.78;6.28;;;6.20;99.90;;;;;;5042593;28;20217;-71
2021/12/04 14:55:14;;;;;;;6.68;5.10;;;6.20;99.90;;;;;;5048943;28;20208;-71
2021/12/04 14:58:00;;;;;;;9.25;4.63;;;6.10;99.90;;;;;;5051177;28;20209;-71
2021/12/04 15:00:47;;;;;;;5.78;4.78;;;6.20;99.90;;;;;;5045699;28;20747;-71
2021/12/04 15:03:36;;;;;;;6.00;4.72;;;6.20;99.90;;;;;;5042938;28;20868;-70
2021/12/04 15:06:25;;;;;;;5.05;4.40;;;6.20;99.90;;;;;;5051763;28;20225;-70
2021/12/04 15:09:14;;;;;;;6.55;5.32;;;6.30;99.90;;;;;;5047311;28;20204;-69
2021/12/04 15:12:01;;;;;;;11.45;4.65;;;6.30;99.90;;;;;;5043697;28;20225;-71
2021/12/04 15:14:48;;;;;;;3.33;2.85;;;6.40;99.90;;;;;;5053805;28;20295;-71
2021/12/04 15:17:34;;;;;;;6.88;3.45;;;6.60;99.90;;;;;;5049571;28;20208;-71
2021/12/04 15:20:27;;;;;;;3.80;3.20;;;6.70;99.90;;;;;;5054972;28;20247;-71
2021/12/04 15:23:20;;;;;;;4.60;3.20;;;7.00;99.90;;;;;;5051196;28;20221;-71
2021/12/04 15:26:11;;;;;;;3.17;2.42;;;7.20;99.90;;;;;;5049318;28;20254;-71
2021/12/04 15:28:57;;;;;;;3.65;2.47;;;7.40;99.90;;;;;;5045412;28;20267;-70
2021/12/04 15:31:42;;;;;;;5.50;3.38;;;7.70;99.90;;;;;;5040899;28;20247;-71
2021/12/04 15:34:34;;;;;;;2.92;2.60;;;7.80;99.90;;;;;;5050864;28;20217;-71
2021/12/04 15:37:27;;;;;;;3.13;2.75;;;7.90;99.90;;;;;;5052727;28;20200;-71
2021/12/04 15:40:28;;;;;;;4.78;3.22;;;7.90;99.90;;;;;;5060047;28;20224;-70
2021/12/04 15:43:21;;;;;;;4.03;3.47;;;8.10;99.90;;;;;;5046916;28;20689;-71
2021/12/04 15:46:15;;;;;;;4.73;2.97;;;8.10;99.90;;;;;;5060015;28;20780;-71
2021/12/04 15:49:25;;;;;;;3.63;2.90;;;8.20;99.90;;;;;;5051145;28;20455;-71
2021/12/04 15:55:13;;;;;;;3.05;2.30;;;8.20;99.90;;;;;;5047764;28;21056;-71
2021/12/04 15:58:03;;;;;;;3.10;2.75;;;8.30;99.90;;;;;;5050445;28;20272;-71
2021/12/04 16:00:53;;;;;;;4.73;3.47;;;8.30;99.90;;;;;;5047021;28;20206;-71
2021/12/04 16:03:41;;;;;;;5.77;4.10;;;8.30;99.90;;;;;;5060720;28;20936;-71
2021/12/04 16:06:38;;;;;;;3.88;3.47;;;8.30;99.90;;;;;;5051264;28;20558;-71
2021/12/04 16:09:28;;;;;;;5.60;4.07;;;8.40;99.90;;;;;;5056706;28;20590;-71
2021/12/04 16:12:15;;;;;;;5.30;4.43;;;8.50;99.90;;;;;;5048515;28;20467;-71
2021/12/04 16:15:02;;;;;;;5.28;4.07;;;8.50;99.90;;;;;;5054283;28;20423;-71
2021/12/04 16:17:48;;;;;;;4.93;4.07;;;8.50;99.90;;;;;;5061642;28;20407;-71
2021/12/04 16:20:35;;;;;;;5.10;4.30;;;8.50;99.90;;;;;;5049750;28;20201;-71
2021/12/04 16:23:21;;;;;;;5.68;5.07;;;8.50;99.90;;;;;;5057395;28;20510;-71
2021/12/04 16:26:10;;;;;;;5.10;4.20;;;8.50;99.90;;;;;;5048242;28;20224;-71
2021/12/04 16:29:04;;;;;;;5.47;4.70;;;8.50;99.90;;;;;;5055215;28;20278;-71
2021/12/04 16:35:13;;;;;;;5.17;4.67;;;8.50;99.90;;;;;;5058552;28;20948;-71
2021/12/04 16:37:59;;;;;;;5.03;4.27;;;8.50;99.90;;;;;;5052372;28;20799;-71
2021/12/04 16:40:47;;;;;;;5.13;4.38;;;8.50;99.90;;;;;;5050342;28;20585;-71
2021/12/04 16:43:35;;;;;;;5.50;4.67;;;8.50;99.90;;;;;;5053267;28;20208;-71
2021/12/04 16:46:24;;;;;;;5.83;4.50;;;8.60;99.90;;;;;;5054453;28;21004;-71
2021/12/04 16:49:12;;;;;;;7.00;4.10;;;8.60;99.90;;;;;;5056961;28;20513;-71
2021/12/04 16:58:04;;;;;;;4.83;3.33;;;8.60;99.90;;;;;;5057075;28;20601;-71
2021/12/04 17:00:52;;;;;;;3.47;2.43;;;8.70;99.90;;;;;;5043543;28;20444;-71
2021/12/04 17:03:37;;;;;;;3.97;2.75;;;8.70;99.90;;;;;;5055718;28;20431;-71
2021/12/04 17:06:25;;;;;;;4.07;2.47;;;8.80;99.90;;;;;;5050909;28;20720;-71
2021/12/04 17:09:11;;;;;;;4.93;3.45;;;8.80;99.90;;;;;;5053603;28;20530;-71
2021/12/04 17:11:57;;;;;;;3.53;3.10;;;8.80;99.90;;;;;;5055507;28;20246;-72
2021/12/04 17:14:42;;;;;;;4.70;3.42;;;8.80;99.90;;;;;;5054340;28;20455;-71
2021/12/04 17:17:30;;;;;;;4.85;3.85;;;8.60;99.90;;;;;;5056790;28;20205;-71
2021/12/04 17:20:19;;;;;;;4.85;4.13;;;8.50;99.90;;;;;;5049148;28;20263;-71
2021/12/04 17:23:06;;;;;;;5.50;4.50;;;8.40;99.90;;;;;;5052735;28;20571;-71